Time;durP1;ratioP1;P1;durP2;ratioP2;P2;SDS_P1;SDS_P2;PMS_P1;PMS_P2;Temp;Humidity;BMP_temperature;BMP_pressure;BME280_temperature;BME280_humidity;BME280_pressure;Samples;Min_cycle;Max_cycle;Signal;HPM_P1;HPM_P2
2024/01/11 00:02:10;;;;;;;;;;;;;;;21.46;24.49;103270.91;5043486;28;19924;-73
2024/01/11 00:04:36;;;;;;;;;;;;;;;21.44;24.75;103276.41;5027946;28;20453;-73
2024/01/11 00:07:01;;;;;;;;;;;;;;;21.42;24.55;103264.03;4997793;28;19924;-74
2024/01/11 00:09:26;;;;;;;;;;;;;;;21.42;24.56;103274.84;5003159;28;19971;-74
2024/01/11 00:11:51;;;;;;;;;;;;;;;21.42;24.58;103274.84;4998547;28;19977;-75
2024/01/11 00:14:16;;;;;;;;;;;;;;;21.39;24.59;103266.97;4995488;28;19914;-74
2024/01/11 00:16:41;;;;;;;;;;;;;;;21.37;24.71;103268.97;4998538;28;19921;-75
2024/01/11 00:19:07;;;;;;;;;;;;;;;21.37;24.82;103268.97;4997323;28;19926;-74
2024/01/11 00:21:32;;;;;;;;;;;;;;;21.39;24.63;103266.97;5000550;28;19913;-74
2024/01/11 00:23:57;;;;;;;;;;;;;;;21.36;24.64;103267.22;5006224;28;19952;-73
2024/01/11 00:26:22;;;;;;;;;;;;;;;21.37;24.57;103280.63;5004017;28;19945;-75
2024/01/11 00:28:47;;;;;;;;;;;;;;;21.35;24.60;103279.03;4998674;28;19914;-74
2024/01/11 00:31:13;;;;;;;;;;;;;;;21.36;24.88;103269.94;4998191;28;19925;-74
2024/01/11 00:33:38;;;;;;;;;;;;;;;21.31;24.65;103266.72;4991725;28;19925;-76
2024/01/11 00:36:04;;;;;;;;;;;;;;;21.28;24.87;103267.84;5014615;28;19920;-74
2024/01/11 00:38:29;;;;;;;;;;;;;;;21.28;24.75;103265.16;5017307;28;19913;-75
2024/01/11 00:40:54;;;;;;;;;;;;;;;21.28;24.92;103270.56;5005702;28;19913;-76
2024/01/11 00:43:19;;;;;;;;;;;;;;;21.29;24.96;103266.00;5007472;28;19917;-76
2024/01/11 00:45:45;;;;;;;;;;;;;;;21.23;24.80;103268.19;4998674;28;19972;-76
2024/01/11 00:48:11;;;;;;;;;;;;;;;21.21;24.95;103269.34;5012549;28;19941;-77
2024/01/11 00:50:36;;;;;;;;;;;;;;;21.20;24.81;103276.59;5019252;28;19914;-77
2024/01/11 00:53:01;;;;;;;;;;;;;;;21.22;24.96;103273.75;5006957;28;19963;-77
2024/01/11 00:55:26;;;;;;;;;;;;;;;21.21;24.80;103275.59;5012064;28;19969;-77
2024/01/11 00:57:51;;;;;;;;;;;;;;;21.26;24.72;103279.78;5003652;28;19978;-76
2024/01/11 01:00:17;;;;;;;;;;;;;;;21.26;24.91;103275.22;5007035;28;19918;-76
2024/01/11 01:02:42;;;;;;;;;;;;;;;21.26;24.84;103274.34;5000640;28;20026;-76
2024/01/11 01:05:07;;;;;;;;;;;;;;;21.24;24.76;103279.91;5016629;28;19925;-76
2024/01/11 01:07:33;;;;;;;;;;;;;;;21.23;24.89;103273.59;5041613;28;19917;-76
2024/01/11 01:09:58;;;;;;;;;;;;;;;21.18;25.05;103278.56;5051898;28;19936;-76
2024/01/11 01:12:24;;;;;;;;;;;;;;;21.16;24.70;103275.13;5053603;28;19912;-76
2024/01/11 01:14:50;;;;;;;;;;;;;;;21.18;24.69;103275.00;5048093;28;19924;-76
2024/01/11 01:17:15;;;;;;;;;;;;;;;21.19;24.70;103282.97;5045782;28;19913;-76
2024/01/11 01:19:40;;;;;;;;;;;;;;;21.17;24.78;103284.09;5041315;28;19913;-76
2024/01/11 01:22:05;;;;;;;;;;;;;;;21.16;24.85;103280.53;5038442;28;20350;-75
2024/01/11 01:24:31;;;;;;;;;;;;;;;21.14;24.92;103284.34;5038442;28;19925;-76
2024/01/11 01:26:56;;;;;;;;;;;;;;;21.12;25.10;103279.06;5039436;28;19921;-76
2024/01/11 01:29:21;;;;;;;;;;;;;;;21.13;24.72;103286.19;5043494;28;20006;-76
2024/01/11 01:31:46;;;;;;;;;;;;;;;21.16;24.99;103282.38;5041258;28;19976;-76
2024/01/11 01:34:11;;;;;;;;;;;;;;;21.18;24.74;103291.22;5040511;28;19921;-76
2024/01/11 01:36:36;;;;;;;;;;;;;;;21.17;24.74;103295.78;5036743;28;19917;-76
2024/01/11 01:39:03;;;;;;;;;;;;;;;21.19;24.74;103296.50;5034081;28;19921;-76
2024/01/11 01:41:28;;;;;;;;;;;;;;;21.21;24.73;103297.25;5043010;28;20094;-76
2024/01/11 01:43:53;;;;;;;;;;;;;;;21.20;24.86;103291.97;5043088;28;20563;-76
2024/01/11 01:46:19;;;;;;;;;;;;;;;21.18;24.92;103293.94;5042998;28;19917;-77
2024/01/11 01:48:44;;;;;;;;;;;;;;;21.16;24.78;103288.66;5043984;28;19917;-76
2024/01/11 01:51:10;;;;;;;;;;;;;;;21.12;24.90;103299.84;5047444;28;19910;-76
2024/01/11 01:53:35;;;;;;;;;;;;;;;21.12;24.96;103305.25;5036995;28;19914;-76
2024/01/11 01:56:00;;;;;;;;;;;;;;;21.11;24.71;103303.50;5041073;28;19988;-76
2024/01/11 01:58:25;;;;;;;;;;;;;;;21.08;24.74;103307.34;5039017;28;19920;-74
2024/01/11 02:00:50;;;;;;;;;;;;;;;21.10;25.08;103305.38;5036882;28;19913;-76
2024/01/11 02:03:15;;;;;;;;;;;;;;;21.07;24.83;103311.06;5049449;28;20374;-76
2024/01/11 02:05:41;;;;;;;;;;;;;;;21.10;25.10;103302.66;5044934;28;19928;-75
2024/01/11 02:08:08;;;;;;;;;;;;;;;21.13;24.92;103307.81;5043013;28;19979;-76
2024/01/11 02:10:33;;;;;;;;;;;;;;;21.13;24.80;103304.28;5041381;28;19916;-76
2024/01/11 02:12:58;;;;;;;;;;;;;;;21.14;24.85;103309.53;5039508;28;19917;-76
2024/01/11 02:15:23;;;;;;;;;;;;;;;21.16;24.87;103304.03;5037278;28;19920;-76
2024/01/11 02:17:49;;;;;;;;;;;;;;;21.12;24.71;103305.25;5042539;28;19917;-76
2024/01/11 02:20:14;;;;;;;;;;;;;;;21.08;24.91;103299.25;5047789;28;19973;-76
2024/01/11 02:22:40;;;;;;;;;;;;;;;21.09;25.07;103298.25;5044693;28;19913;-77
2024/01/11 02:25:05;;;;;;;;;;;;;;;21.06;25.09;103294.94;5045693;28;19939;-75
2024/01/11 02:27:31;;;;;;;;;;;;;;;21.04;24.74;103284.25;5033616;28;20366;-76
2024/01/11 02:29:56;;;;;;;;;;;;;;;21.05;24.94;103283.25;5037728;28;19918;-76
2024/01/11 02:32:21;;;;;;;;;;;;;;;21.05;24.96;103283.25;5045608;28;20029;-76
2024/01/11 02:34:46;;;;;;;;;;;;;;;21.05;24.99;103288.66;5048312;28;19924;-76
2024/01/11 02:37:11;;;;;;;;;;;;;;;21.02;24.83;103288.03;5042593;28;19926;-76
2024/01/11 02:39:37;;;;;;;;;;;;;;;21.01;24.89;103289.91;5042063;28;19917;-76
2024/01/11 02:42:02;;;;;;;;;;;;;;;21.01;25.06;103291.75;5044042;28;19917;-73
2024/01/11 02:44:27;;;;;;;;;;;;;;;21.02;25.07;103296.16;5033843;28;20392;-76
2024/01/11 02:46:52;;;;;;;;;;;;;;;21.02;25.04;103299.72;5040949;28;19952;-76
2024/01/11 02:49:17;;;;;;;;;;;;;;;21.03;24.78;103300.59;5047660;28;19917;-76
2024/01/11 02:51:43;;;;;;;;;;;;;;;21.04;24.90;103288.78;5053697;28;19917;-77
2024/01/11 02:54:08;;;;;;;;;;;;;;;21.06;24.68;103297.63;5047769;28;20437;-76
2024/01/11 02:56:33;;;;;;;;;;;;;;;21.06;24.66;103292.22;5044393;28;19980;-75
2024/01/11 02:58:58;;;;;;;;;;;;;;;21.08;24.91;103295.69;5041932;28;19939;-76
2024/01/11 03:01:23;;;;;;;;;;;;;;;21.05;24.71;103294.06;5037808;28;19914;-76
2024/01/11 03:03:48;;;;;;;;;;;;;;;21.05;24.85;103301.31;5031277;28;19929;-76
2024/01/11 03:06:14;;;;;;;;;;;;;;;21.02;24.98;103294.31;5037230;28;19925;-76
2024/01/11 03:08:39;;;;;;;;;;;;;;;21.03;24.68;103297.91;5038208;28;19918;-76
2024/01/11 03:11:04;;;;;;;;;;;;;;;21.01;25.03;103298.00;5040802;28;19972;-75
2024/01/11 03:13:30;;;;;;;;;;;;;;;20.99;24.92;103297.28;5040847;28;19921;-76
2024/01/11 03:15:57;;;;;;;;;;;;;;;21.01;24.92;103295.31;5035486;28;19925;-76
2024/01/11 03:18:22;;;;;;;;;;;;;;;21.00;24.83;103298.13;5031615;28;19972;-76
2024/01/11 03:20:47;;;;;;;;;;;;;;;20.99;24.90;103300.00;5035145;28;19914;-76
2024/01/11 03:23:12;;;;;;;;;;;;;;;21.01;25.01;103297.16;5042437;28;19924;-75
2024/01/11 03:25:37;;;;;;;;;;;;;;;20.99;25.05;103294.59;5042717;28;20019;-76
2024/01/11 03:28:03;;;;;;;;;;;;;;;20.98;25.05;103303.66;5040231;28;19921;-76
2024/01/11 03:30:28;;;;;;;;;;;;;;;20.97;24.64;103310.06;5044317;28;20492;-76
2024/01/11 03:32:53;;;;;;;;;;;;;;;20.96;24.95;103302.94;5041245;28;19913;-75
2024/01/11 03:35:18;;;;;;;;;;;;;;;20.94;25.01;103307.59;5036586;28;19986;-76
2024/01/11 03:37:44;;;;;;;;;;;;;;;20.94;24.99;103308.47;5039325;28;19917;-76
2024/01/11 03:40:09;;;;;;;;;;;;;;;20.95;24.69;103312.91;5035458;28;19921;-75
2024/01/11 03:42:34;;;;;;;;;;;;;;;20.93;25.01;103320.25;5042607;28;19928;-74
2024/01/11 03:44:59;;;;;;;;;;;;;;;20.93;24.83;103322.09;5057734;28;19928;-76
2024/01/11 03:47:25;;;;;;;;;;;;;;;20.95;25.11;103322.84;5053831;28;20535;-76
2024/01/11 03:49:50;;;;;;;;;;;;;;;20.94;24.75;103324.72;5046506;28;19913;-76
2024/01/11 03:52:15;;;;;;;;;;;;;;;20.92;25.01;103332.06;5035990;28;20012;-76
2024/01/11 03:54:40;;;;;;;;;;;;;;;20.90;24.79;103328.63;5031344;28;19913;-76
2024/01/11 03:57:06;;;;;;;;;;;;;;;20.89;25.00;103324.19;5036675;28;19913;-76
2024/01/11 03:59:31;;;;;;;;;;;;;;;20.87;24.93;103337.00;5044764;28;20043;-75
2024/01/11 04:01:57;;;;;;;;;;;;;;;20.84;25.04;103339.06;5044367;28;19913;-76
2024/01/11 04:04:22;;;;;;;;;;;;;;;20.85;24.80;103329.97;5045115;28;19940;-76
2024/01/11 04:06:48;;;;;;;;;;;;;;;20.85;24.79;103328.13;5034477;28;19921;-75
2024/01/11 04:09:13;;;;;;;;;;;;;;;20.84;25.00;103322.84;5030672;28;19913;-76
2024/01/11 04:11:38;;;;;;;;;;;;;;;20.84;25.02;103337.22;5040709;28;19927;-75
2024/01/11 04:14:03;;;;;;;;;;;;;;;20.84;24.75;103341.78;5044884;28;19912;-76
2024/01/11 04:16:29;;;;;;;;;;;;;;;20.83;24.98;103345.47;5049264;28;19966;-76
2024/01/11 04:18:54;;;;;;;;;;;;;;;20.83;24.97;103357.16;5039911;28;19956;-76
2024/01/11 04:21:21;;;;;;;;;;;;;;;20.85;24.94;103355.16;5043179;28;20428;-76
2024/01/11 04:23:46;;;;;;;;;;;;;;;20.84;24.81;103348.03;5030962;28;20686;-76
2024/01/11 04:26:11;;;;;;;;;;;;;;;20.84;24.94;103353.44;5041165;28;19924;-76
2024/01/11 04:28:36;;;;;;;;;;;;;;;20.82;24.68;103358.13;5036994;28;19913;-76
2024/01/11 04:31:02;;;;;;;;;;;;;;;20.80;24.94;103343.84;5051025;28;19913;-76
2024/01/11 04:33:27;;;;;;;;;;;;;;;20.81;24.73;103348.28;5049143;28;20321;-76
2024/01/11 04:35:52;;;;;;;;;;;;;;;20.82;25.07;103349.16;5043709;28;19984;-76
2024/01/11 04:38:17;;;;;;;;;;;;;;;20.80;24.88;103351.97;5044023;28;19918;-76
2024/01/11 04:40:42;;;;;;;;;;;;;;;20.80;24.89;103345.72;5040958;28;19920;-76
2024/01/11 04:43:08;;;;;;;;;;;;;;;20.78;24.77;103344.97;5040769;28;19998;-76
2024/01/11 04:45:34;;;;;;;;;;;;;;;20.78;25.07;103350.41;5033461;28;19951;-76
2024/01/11 04:47:59;;;;;;;;;;;;;;;20.76;24.86;103357.75;5036061;28;20366;-76
2024/01/11 04:50:24;;;;;;;;;;;;;;;20.73;25.06;103353.47;5040125;28;19917;-77
2024/01/11 04:52:49;;;;;;;;;;;;;;;20.73;24.85;103345.34;5039851;28;19924;-77
2024/01/11 04:55:14;;;;;;;;;;;;;;;20.71;25.01;103344.59;5038277;28;20016;-75
2024/01/11 04:57:40;;;;;;;;;;;;;;;20.71;24.94;103340.03;5031448;28;19929;-76
2024/01/11 05:00:05;;;;;;;;;;;;;;;20.72;24.76;103325.53;5034576;28;20259;-76
2024/01/11 05:02:30;;;;;;;;;;;;;;;20.74;24.88;103324.56;5038768;28;19955;-76
2024/01/11 05:04:56;;;;;;;;;;;;;;;20.71;25.04;103318.41;5038853;28;19957;-76
2024/01/11 05:07:21;;;;;;;;;;;;;;;20.68;24.83;103318.66;5037157;28;19924;-75
2024/01/11 05:09:46;;;;;;;;;;;;;;;20.69;24.92;103316.84;5041915;28;19921;-76
2024/01/11 05:12:11;;;;;;;;;;;;;;;20.68;24.84;103318.66;5043604;28;19913;-76
2024/01/11 05:14:36;;;;;;;;;;;;;;;20.66;24.93;103322.47;5033044;28;19917;-77
2024/01/11 05:17:02;;;;;;;;;;;;;;;20.65;24.89;103316.22;5038583;28;19925;-77
2024/01/11 05:19:27;;;;;;;;;;;;;;;20.62;24.98;103299.38;5040268;28;20447;-77
2024/01/11 05:21:52;;;;;;;;;;;;;;;20.61;24.92;103284.16;5041739;28;19920;-77
2024/01/11 05:24:17;;;;;;;;;;;;;;;20.58;25.14;103293.34;5046176;28;19921;-77
2024/01/11 05:26:42;;;;;;;;;;;;;;;20.57;24.89;103304.28;5043767;28;19928;-77
2024/01/11 05:29:08;;;;;;;;;;;;;;;20.56;24.83;103319.66;5041805;28;19951;-78
2024/01/11 05:31:33;;;;;;;;;;;;;;;20.56;24.92;103319.66;5041026;28;19959;-77
2024/01/11 05:33:58;;;;;;;;;;;;;;;20.55;25.14;103327.88;5037119;28;19917;-75
2024/01/11 05:36:23;;;;;;;;;;;;;;;20.54;25.24;103329.72;5034635;28;19995;-75
2024/01/11 05:38:48;;;;;;;;;;;;;;;20.52;25.13;103320.88;5044933;28;20015;-72
2024/01/11 05:41:14;;;;;;;;;;;;;;;20.53;25.18;103325.28;5045892;28;19913;-73
2024/01/11 05:43:39;;;;;;;;;;;;;;;20.53;25.02;103327.13;5043704;28;19931;-72
2024/01/11 05:46:05;;;;;;;;;;;;;;;20.52;25.09;103333.50;5045842;28;20325;-74
2024/01/11 05:48:30;;;;;;;;;;;;;;;20.51;25.22;103350.69;5038006;28;19941;-73
2024/01/11 05:50:55;;;;;;;;;;;;;;;20.49;25.46;103355.38;5043777;28;19917;-73
2024/01/11 05:53:21;;;;;;;;;;;;;;;20.49;25.17;103367.06;5044402;28;19965;-73
2024/01/11 05:55:46;;;;;;;;;;;;;;;20.49;25.20;103361.66;5046801;28;19916;-73
2024/01/11 05:58:11;;;;;;;;;;;;;;;20.46;25.11;103357.28;5037868;28;19917;-73
2024/01/11 06:00:37;;;;;;;;;;;;;;;20.45;25.30;103363.69;5046323;28;19920;-73
2024/01/11 06:03:02;;;;;;;;;;;;;;;20.46;25.45;103369.94;5044510;28;19928;-75
2024/01/11 06:05:27;;;;;;;;;;;;;;;20.46;25.48;103378.91;5043127;28;19921;-75
2024/01/11 06:07:52;;;;;;;;;;;;;;;20.45;25.23;103381.75;5039223;28;19967;-76
2024/01/11 06:10:18;;;;;;;;;;;;;;;20.43;25.65;103384.56;5043330;28;19921;-73
2024/01/11 06:12:43;;;;;;;;;;;;;;;20.42;25.67;103395.50;5050559;28;19910;-73
2024/01/11 06:15:09;;;;;;;;;;;;;;;20.41;25.49;103401.88;5045420;28;19985;-73
2024/01/11 06:17:34;;;;;;;;;;;;;;;20.40;25.78;103406.44;5044804;28;19909;-73
2024/01/11 06:19:59;;;;;;;;;;;;;;;20.39;25.60;103420.03;5045427;28;19987;-73
2024/01/11 06:22:25;;;;;;;;;;;;;;;20.40;25.77;103429.88;5044807;28;20598;-73
2024/01/11 06:24:50;;;;;;;;;;;;;;;20.38;25.59;103424.56;5042049;28;19917;-73
2024/01/11 06:27:15;;;;;;;;;;;;;;;20.37;25.74;103428.28;5043713;28;19990;-73
2024/01/11 06:29:40;;;;;;;;;;;;;;;20.38;25.41;103419.19;5043708;28;19923;-73
2024/01/11 06:32:06;;;;;;;;;;;;;;;20.38;25.68;103431.81;5026275;28;19928;-73
2024/01/11 06:34:31;;;;;;;;;;;;;;;20.35;25.78;103430.25;5043847;28;19924;-73
2024/01/11 06:36:56;;;;;;;;;;;;;;;20.35;25.63;103421.28;5041408;28;19917;-74
2024/01/11 06:39:21;;;;;;;;;;;;;;;20.32;25.62;103413.41;5039898;28;19913;-73
2024/01/11 06:41:46;;;;;;;;;;;;;;;20.33;25.69;103418.69;5039564;28;19952;-73
2024/01/11 06:44:12;;;;;;;;;;;;;;;20.35;25.82;103424.84;5043819;28;19928;-74
2024/01/11 06:46:39;;;;;;;;;;;;;;;20.34;25.62;103424.94;5042470;28;19967;-73
2024/01/11 06:49:04;;;;;;;;;;;;;;;20.32;25.67;103414.25;5026090;28;19921;-74
2024/01/11 06:51:29;;;;;;;;;;;;;;;20.33;25.91;103404.31;5040510;28;20016;-76
2024/01/11 06:53:54;;;;;;;;;;;;;;;20.30;25.51;103397.28;5037051;28;20056;-75
2024/01/11 06:56:20;;;;;;;;;;;;;;;20.30;25.51;103385.63;5043919;28;19921;-74
2024/01/11 06:58:46;;;;;;;;;;;;;;;20.28;25.70;103380.34;5043086;28;19913;-75
2024/01/11 07:01:11;;;;;;;;;;;;;;;20.25;25.72;103372.47;5042621;28;19932;-75
2024/01/11 07:03:37;;;;;;;;;;;;;;;20.26;25.95;103379.59;5046812;28;20000;-75
2024/01/11 07:06:03;;;;;;;;;;;;;;;20.27;25.69;103384.03;5045386;28;19925;-75
2024/01/11 07:08:28;;;;;;;;;;;;;;;20.27;25.78;103389.44;5034148;28;19920;-76
2024/01/11 07:10:55;;;;;;;;;;;;;;;20.27;25.87;103400.25;5041380;28;20562;-74
2024/01/11 07:13:20;;;;;;;;;;;;;;;20.27;25.59;103404.78;5044109;28;19924;-74
2024/01/11 07:15:46;;;;;;;;;;;;;;;20.25;25.52;103396.78;5041667;28;19928;-74
2024/01/11 07:18:12;;;;;;;;;;;;;;;20.25;25.61;103395.94;5041850;28;19917;-75
2024/01/11 07:20:37;;;;;;;;;;;;;;;20.21;25.53;103398.00;5038231;28;20389;-74
2024/01/11 07:23:02;;;;;;;;;;;;;;;20.22;25.90;103410.53;5044174;28;19993;-74
2024/01/11 07:25:28;;;;;;;;;;;;;;;20.19;25.85;103392.72;5042137;28;19921;-73
2024/01/11 07:27:53;;;;;;;;;;;;;;;20.20;25.79;103405.25;5038458;28;19921;-75
2024/01/11 07:30:18;;;;;;;;;;;;;;;20.17;25.92;103402.75;5039679;28;20012;-75
2024/01/11 07:32:43;;;;;;;;;;;;;;;20.14;25.98;103407.56;5044902;28;19921;-74
2024/01/11 07:35:10;;;;;;;;;;;;;;;20.14;25.73;103403.03;5046037;28;20046;-75
2024/01/11 07:37:35;;;;;;;;;;;;;;;20.12;26.00;103402.25;5043687;28;19940;-75
2024/01/11 07:40:00;;;;;;;;;;;;;;;20.12;25.71;103393.28;5034144;28;19917;-75
2024/01/11 07:42:25;;;;;;;;;;;;;;;20.12;25.73;103387.91;5044583;28;19920;-75
2024/01/11 07:44:50;;;;;;;;;;;;;;;20.12;25.66;103394.16;5038532;28;19917;-74
2024/01/11 07:47:16;;;;;;;;;;;;;;;20.12;25.70;103409.50;5042779;28;19917;-74
2024/01/11 07:49:42;;;;;;;;;;;;;;;20.11;25.55;103391.56;5039544;28;19918;-75
2024/01/11 07:52:07;;;;;;;;;;;;;;;20.12;25.86;103399.56;5048620;28;19920;-75
2024/01/11 07:54:33;;;;;;;;;;;;;;;20.14;25.54;103397.63;5045858;28;20082;-75
2024/01/11 07:56:58;;;;;;;;;;;;;;;20.14;25.76;103403.03;5043510;28;19916;-74
2024/01/11 07:59:23;;;;;;;;;;;;;;;20.14;25.75;103408.41;5023274;28;19914;-75
2024/01/11 08:01:48;;;;;;;;;;;;;;;20.14;25.55;103419.22;5041408;28;19948;-73
2024/01/11 08:04:14;;;;;;;;;;;;;;;20.15;25.54;103426.34;5039676;28;19925;-74
2024/01/11 08:06:39;;;;;;;;;;;;;;;20.16;25.66;103428.06;5042425;28;19928;-74
2024/01/11 08:09:04;;;;;;;;;;;;;;;20.17;25.53;103439.72;5041283;28;19917;-74
2024/01/11 08:11:31;;;;;;;;;;;;;;;20.16;25.55;103446.97;5041319;28;19936;-74
2024/01/11 08:13:56;;;;;;;;;;;;;;;20.18;25.67;103463.09;5033917;28;19952;-76
2024/01/11 08:16:21;;;;;;;;;;;;;;;20.16;25.72;103457.78;5040022;28;19921;-74
2024/01/11 08:18:48;;;;;;;;;;;;;;;20.16;25.53;103449.66;5035478;28;19921;-75
2024/01/11 08:21:14;;;;;;;;;;;;;;;20.17;25.61;103459.50;5039018;28;19914;-75
2024/01/11 08:23:43;;;;;;;;;;;;;;;19.69;25.71;103374.91;5037670;28;19970;-75
2024/01/11 08:26:09;;;;;;;;;;;;;;;20.20;25.55;103458.41;5036060;28;19920;-75
2024/01/11 08:28:34;;;;;;;;;;;;;;;20.19;25.46;103444.03;5046231;28;19913;-73
2024/01/11 08:30:59;;;;;;;;;;;;;;;20.21;25.43;103460.13;5040981;28;19917;-74
2024/01/11 08:33:24;;;;;;;;;;;;;;;20.21;25.65;103458.28;5037360;28;20497;-75
2024/01/11 08:35:49;;;;;;;;;;;;;;;20.20;25.62;103478.19;5036756;28;19919;-74
2024/01/11 08:38:15;;;;;;;;;;;;;;;20.22;25.40;103476.25;5038956;28;19925;-75
2024/01/11 08:40:40;;;;;;;;;;;;;;;20.21;25.41;103465.53;5034294;28;19937;-75
2024/01/11 08:43:06;;;;;;;;;;;;;;;20.20;25.64;103464.66;5046309;28;19977;-75
2024/01/11 08:45:31;;;;;;;;;;;;;;;20.19;25.54;103456.69;5046574;28;19928;-75
2024/01/11 08:47:56;;;;;;;;;;;;;;;20.17;25.53;103459.50;5042082;28;19917;-76
2024/01/11 08:50:22;;;;;;;;;;;;;;;20.21;25.73;103454.72;5035370;28;20286;-76
2024/01/11 08:52:48;;;;;;;;;;;;;;;20.21;25.46;103455.56;5040892;28;19917;-76
2024/01/11 08:55:13;;;;;;;;;;;;;;;20.14;25.17;103443.53;5032837;28;20009;-75
2024/01/11 08:57:39;;;;;;;;;;;;;;;20.20;25.66;103461.97;5032554;28;19928;-74
2024/01/11 09:00:06;;;;;;;;;;;;;;;20.18;25.31;103472.03;5042327;28;19935;-75
2024/01/11 09:02:31;;;;;;;;;;;;;;;20.20;25.49;103470.06;5044637;28;19916;-75
2024/01/11 09:04:56;;;;;;;;;;;;;;;20.22;25.36;103478.09;5029850;28;19944;-75
2024/01/11 09:07:21;;;;;;;;;;;;;;;20.20;25.62;103480.00;4997522;28;19993;-75
2024/01/11 09:09:47;;;;;;;;;;;;;;;20.21;25.37;103471.78;4994440;28;19922;-76
2024/01/11 09:12:12;;;;;;;;;;;;;;;20.22;25.39;103478.09;5008042;28;19933;-75
2024/01/11 09:14:37;;;;;;;;;;;;;;;20.22;25.53;103478.09;5008982;28;19913;-75
2024/01/11 09:17:06;;;;;;;;;;;;;;;20.23;25.57;103474.41;5009176;28;19938;-75
2024/01/11 09:19:31;;;;;;;;;;;;;;;20.25;25.35;103472.44;5003825;28;19913;-75
2024/01/11 09:21:56;;;;;;;;;;;;;;;20.24;25.61;103473.41;5000506;28;20446;-74
2024/01/11 09:24:22;;;;;;;;;;;;;;;20.26;25.33;103479.53;4998944;28;19926;-76
2024/01/11 09:26:49;;;;;;;;;;;;;;;20.27;25.51;103473.19;5000936;28;19917;-73
2024/01/11 09:29:15;;;;;;;;;;;;;;;20.27;25.54;103475.88;5006107;28;20000;-74
2024/01/11 09:31:42;;;;;;;;;;;;;;;20.30;25.39;103474.78;5008002;28;19991;-74
2024/01/11 09:34:07;;;;;;;;;;;;;;;20.30;25.52;103472.06;5010995;28;19968;-75
2024/01/11 09:36:33;;;;;;;;;;;;;;;20.31;25.43;103479.22;5021943;28;19914;-76
2024/01/11 09:38:58;;;;;;;;;;;;;;;20.32;25.56;103492.59;5004095;28;19964;-75
2024/01/11 09:41:23;;;;;;;;;;;;;;;20.33;25.55;103497.03;5018153;28;20393;-76
2024/01/11 09:43:49;;;;;;;;;;;;;;;20.32;25.52;103492.59;5004816;28;20579;-75
2024/01/11 09:46:15;;;;;;;;;;;;;;;20.33;25.30;103494.31;5011547;28;19914;-76
2024/01/11 09:48:40;;;;;;;;;;;;;;;20.35;25.27;103497.78;5002008;28;19934;-75
2024/01/11 09:51:12;;;;;;;;;;;;;;;20.37;25.59;103500.38;5015404;28;20043;-75
2024/01/11 09:53:38;;;;;;;;;;;;;;;20.38;25.23;103497.53;5001237;28;19940;-71
2024/01/11 09:56:04;;;;;;;;;;;;;;;20.37;25.19;103489.56;5002059;28;19980;-71
2024/01/11 09:58:29;;;;;;;;;;;;;;;20.38;25.38;103470.50;5012228;28;19973;-75
2024/01/11 10:00:55;;;;;;;;;;;;;;;20.40;25.36;103475.81;5017320;28;19925;-75
2024/01/11 10:03:24;;;;;;;;;;;;;;;20.40;25.59;103483.94;5000927;28;19940;-76
2024/01/11 10:05:50;;;;;;;;;;;;;;;20.42;25.21;103492.78;5020796;28;19994;-73
2024/01/11 10:08:18;;;;;;;;;;;;;;;20.43;25.38;103487.28;5042661;28;19917;-75
2024/01/11 10:10:43;;;;;;;;;;;;;;;20.43;25.22;103487.28;5042664;28;19917;-76
2024/01/11 10:13:08;;;;;;;;;;;;;;;20.45;25.53;103489.84;5041720;28;19989;-76
2024/01/11 10:15:33;;;;;;;;;;;;;;;20.44;25.58;103488.13;5036096;28;19924;-77
2024/01/11 10:17:58;;;;;;;;;;;;;;;20.45;25.52;103495.25;5041803;28;19943;-77
2024/01/11 10:20:24;;;;;;;;;;;;;;;20.43;25.33;103495.38;5037382;28;19917;-74
2024/01/11 10:22:50;;;;;;;;;;;;;;;20.43;25.54;103498.06;5044685;28;19948;-77
2024/01/11 10:25:15;;;;;;;;;;;;;;;20.45;25.38;103496.09;5046937;28;19927;-77
2024/01/11 10:27:44;;;;;;;;;;;;;;;20.44;25.36;103494.38;5047458;28;19924;-75
2024/01/11 10:30:13;;;;;;;;;;;;;;;20.46;25.40;103494.25;5036875;28;20064;-74
2024/01/11 10:32:38;;;;;;;;;;;;;;;20.49;25.34;103512.13;5041774;28;19923;-74
2024/01/11 10:35:04;;;;;;;;;;;;;;;20.50;25.40;103509.31;5038948;28;19960;-74
2024/01/11 10:37:30;;;;;;;;;;;;;;;20.51;25.46;103507.47;5034134;28;19922;-73
2024/01/11 10:39:55;;;;;;;;;;;;;;;20.52;25.24;103503.75;5038767;28;19917;-74
2024/01/11 10:42:21;;;;;;;;;;;;;;;20.53;25.59;103513.63;5045489;28;19924;-76
2024/01/11 10:44:46;;;;;;;;;;;;;;;20.56;25.48;103516.06;5041942;28;19932;-76
2024/01/11 10:47:11;;;;;;;;;;;;;;;20.56;25.86;103518.78;5040659;28;19923;-76
2024/01/11 10:49:38;;;;;;;;;;;;;;;20.55;25.85;103514.34;5032783;28;19917;-74
2024/01/11 10:52:07;;;;;;;;;;;;;;;20.56;25.69;103526.88;5042303;28;20471;-74
2024/01/11 10:54:32;;;;;;;;;;;;;;;20.58;25.88;103511.44;5043791;28;19925;-74
2024/01/11 10:57:00;;;;;;;;;;;;;;;20.59;26.03;103505.91;5050332;28;19913;-74
2024/01/11 10:59:30;;;;;;;;;;;;;;;20.60;26.05;103512.16;5043887;28;19917;-75
2024/01/11 11:01:56;;;;;;;;;;;;;;;20.60;26.38;103515.75;5041411;28;19968;-76
2024/01/11 11:04:22;;;;;;;;;;;;;;;20.62;26.14;103499.41;5034334;28;19922;-73
2024/01/11 11:06:48;;;;;;;;;;;;;;;20.62;26.11;103502.97;5044017;28;19921;-74
2024/01/11 11:09:13;;;;;;;;;;;;;;;20.63;26.28;103495.72;5042071;28;19918;-72
2024/01/11 11:11:39;;;;;;;;;;;;;;;20.63;26.17;103493.88;5035376;28;19927;-74
2024/01/11 11:14:04;;;;;;;;;;;;;;;20.65;26.22;103504.59;5045241;28;19917;-74
2024/01/11 11:16:30;;;;;;;;;;;;;;;20.64;26.59;103506.41;5043479;28;19952;-76
2024/01/11 11:18:55;;;;;;;;;;;;;;;20.64;26.27;103492.88;5038729;28;20270;-75
2024/01/11 11:21:20;;;;;;;;;;;;;;;20.64;26.71;103498.28;5040451;28;19993;-73
2024/01/11 11:23:46;;;;;;;;;;;;;;;20.63;26.33;103499.28;5044314;28;19944;-74
2024/01/11 11:26:16;;;;;;;;;;;;;;;20.61;26.35;103494.97;5031669;28;19923;-73
2024/01/11 11:28:41;;;;;;;;;;;;;;;20.61;26.67;103513.91;5041967;28;19925;-74
2024/01/11 11:31:06;;;;;;;;;;;;;;;20.58;26.55;103509.59;5037269;28;19971;-74
2024/01/11 11:33:31;;;;;;;;;;;;;;;20.57;26.66;103496.19;5041251;28;19959;-73
2024/01/11 11:35:58;;;;;;;;;;;;;;;20.59;26.76;103486.13;5039763;28;20274;-73
2024/01/11 11:38:24;;;;;;;;;;;;;;;20.57;26.74;103475.44;5036864;28;20027;-73
2024/01/11 11:40:51;;;;;;;;;;;;;;;20.56;26.75;103462.00;5035708;28;19941;-73
2024/01/11 11:43:17;;;;;;;;;;;;;;;20.56;26.87;103460.19;5037874;28;20012;-73
2024/01/11 11:45:42;;;;;;;;;;;;;;;20.56;26.71;103453.91;5034590;28;19944;-73
2024/01/11 11:48:38;;;;;;;;;;;;;;;20.57;26.70;103447.53;5041922;28;20369;-73
2024/01/11 11:51:06;;;;;;;;;;;;;;;20.58;26.64;103443.84;5031460;28;19992;-74
2024/01/11 11:53:35;;;;;;;;;;;;;;;20.59;26.85;103440.16;5039766;28;19971;-73
2024/01/11 11:56:01;;;;;;;;;;;;;;;20.59;26.55;103434.75;5017441;28;20008;-72
2024/01/11 11:58:27;;;;;;;;;;;;;;;20.59;26.54;103430.22;5040040;28;19912;-72
2024/01/11 12:00:52;;;;;;;;;;;;;;;20.59;26.67;103432.06;5036759;28;20424;-73
2024/01/11 12:03:17;;;;;;;;;;;;;;;20.61;26.63;103436.38;5042635;28;19919;-73
2024/01/11 12:05:43;;;;;;;;;;;;;;;20.64;26.62;103435.25;5046643;28;20496;-72
2024/01/11 12:08:08;;;;;;;;;;;;;;;20.64;26.75;103438.81;5044645;28;19917;-73
2024/01/11 12:10:34;;;;;;;;;;;;;;;20.65;26.47;103440.56;5039572;28;19913;-72
2024/01/11 12:13:00;;;;;;;;;;;;;;;20.68;26.63;103444.84;5042011;28;19945;-73
2024/01/11 12:15:26;;;;;;;;;;;;;;;20.66;26.69;103436.00;5034617;28;19917;-75
2024/01/11 12:17:57;;;;;;;;;;;;;;;20.68;26.37;103428.63;5034479;28;19909;-74
2024/01/11 12:20:22;;;;;;;;;;;;;;;20.69;26.61;103424.97;5035556;28;20012;-74
2024/01/11 12:22:47;;;;;;;;;;;;;;;20.69;26.43;103417.72;5045308;28;19917;-73
2024/01/11 12:25:12;;;;;;;;;;;;;;;20.69;26.30;103412.31;5032738;28;20356;-74
2024/01/11 12:27:37;;;;;;;;;;;;;;;20.69;26.22;103411.47;5036165;28;19917;-73